Mountain View, Wyoming
Current Conditions -  °F | °C
As of 1:15 PM on Friday 19 Dec 2014 (Local Time) from KFBR Reporting Station
Overcast Overcast  
Wind Chill: 26°   Ceiling: 7000
Heat Index: 37°   Visibility: 10mi
Dew Point: 21°   Wind: 21mph
Humidity: 53%   Direction: 270°W
Pressure: 30.12"   Gusts: 29mph
Location:  41.27°N, 110.34°W
Report Text: KFBR 192015Z AUTO 27018G25KT 10SM OVC070 03/M06 A3012 RMK AO2 T00281060
Loading
Personal Weather Stations






























Interactive Weather Map New forecast layout! Learn more

10-Day Weather Forecast

Advertisements
Track Severe Weather on mobile